| DS18B20 | SHTC3 | PZEM-004T | WiFi | ||||||||
|---|---|---|---|---|---|---|---|---|---|---|---|
| ID | Date d/m/Y & Time | data1 สูง | data2 ต่ำ | data3 นอก | temp pcb | hum pcb | Volt | Amp | Watt | rssi | Time |
| 4742 | 19/07/2026 22:37:50 | 29.1  | 29.1  | 27.1  | 30.1  | 67.0  | 229.7  | 0.04  | 4.6  | -82  | 22:37 |
| 4741 | 19/07/2026 22:33:09 | 29.1  | 29.1  | 27.1  | 30.0  | 66.8  | 228.2  | 0.04  | 4.6  | -83  | 22:33 |
| 4740 | 19/07/2026 22:28:25 | 29.1  | 29.1  | 27.2  | 30.2  | 67.0  | 230.2  | 0.04  | 4.6  | -82  | 22:28 |
| 4739 | 19/07/2026 22:23:43 | 29.1  | 29.1  | 27.3  | 30.1  | 66.9  | 228.2  | 0.04  | 4.6  | -80  | 22:23 |
| 4738 | 19/07/2026 22:19:00 | 29.2  | 29.1  | 27.3  | 30.2  | 67.0  | 230.2  | 0.04  | 4.6  | -82  | 22:19 |
| 4737 | 19/07/2026 22:14:16 | 29.2  | 29.1  | 27.2  | 30.0  | 66.8  | 227.9  | 0.04  | 4.6  | -82  | 22:14 |
| 4736 | 19/07/2026 22:09:32 | 29.2  | 29.1  | 27.3  | 30.4  | 66.9  | 228.3  | 0.04  | 4.6  | -82  | 22:09 |
| 4735 | 19/07/2026 22:04:49 | 29.2  | 29.2  | 27.3  | 30.3  | 67.0  | 228.4  | 0.04  | 4.6  | -84  | 22:04 |
| 4734 | 19/07/2026 22:00:06 | 29.2  | 29.2  | 27.2  | 30.2  | 66.8  | 228.3  | 0.04  | 4.5  | -82  | 22:00 |
| 4733 | 19/07/2026 21:55:23 | 29.3  | 29.2  | 27.1  | 30.1  | 66.8  | 228.3  | 0.04  | 4.5  | -80  | 21:55 |
| 4732 | 19/07/2026 21:50:40 | 29.3  | 29.2  | 27.1  | 30.4  | 66.9  | 228.9  | 0.04  | 4.5  | -83  | 21:50 |
| 4731 | 19/07/2026 21:45:56 | 29.3  | 29.2  | 27.2  | 30.3  | 66.8  | 228.4  | 0.04  | 4.6  | -83  | 21:45 |
| 4730 | 19/07/2026 21:41:14 | 29.4  | 29.3  | 27.3  | 30.4  | 66.8  | 228.1  | 0.04  | 4.5  | -83  | 21:41 |
| 4729 | 19/07/2026 21:36:31 | 29.4  | 29.3  | 27.2  | 30.4  | 66.8  | 227.2  | 0.04  | 4.6  | -82  | 21:36 |
| 4728 | 19/07/2026 21:31:48 | 29.4  | 29.3  | 27.2  | 30.5  | 66.9  | 227.5  | 0.04  | 4.5  | -82  | 21:31 |
| 4727 | 19/07/2026 21:27:05 | 29.4  | 29.3  | 27.1  | 30.4  | 66.8  | 227.6  | 0.04  | 4.5  | -81  | 21:27 |
| 4726 | 19/07/2026 21:22:23 | 29.4  | 29.4  | 27.2  | 30.4  | 66.7  | 227.5  | 0.04  | 4.5  | -80  | 21:22 |
| 4725 | 19/07/2026 21:17:40 | 29.5  | 29.4  | 27.4  | 30.4  | 66.8  | 228.6  | 0.04  | 4.5  | -82  | 21:17 |
| 4724 | 19/07/2026 21:12:57 | 29.5  | 29.4  | 27.5  | 30.6  | 66.8  | 226.7  | 0.04  | 4.5  | -82  | 21:12 |
| 4723 | 19/07/2026 21:08:14 | 29.5  | 29.4  | 27.4  | 30.6  | 66.8  | 225.9  | 0.04  | 4.6  | -81  | 21:08 |
| 4722 | 19/07/2026 21:03:32 | 29.5  | 29.4  | 27.5  | 30.5  | 66.7  | 227.4  | 0.04  | 4.6  | -84  | 21:03 |
| 4721 | 19/07/2026 20:58:49 | 29.6  | 29.5  | 27.6  | 30.5  | 66.7  | 227.6  | 0.04  | 4.5  | -83  | 20:58 |
| 4720 | 19/07/2026 20:54:06 | 29.6  | 29.5  | 27.6  | 30.5  | 66.8  | 227.8  | 0.04  | 4.6  | -83  | 20:54 |
| 4719 | 19/07/2026 20:49:23 | 29.6  | 29.5  | 27.5  | 30.5  | 66.7  | 226.3  | 0.04  | 4.5  | -83  | 20:49 |